Time;durP1;ratioP1;P1;durP2;ratioP2;P2;SDS_P1;SDS_P2;PMS_P1;PMS_P2;Temp;Humidity;BMP_temperature;BMP_pressure;BME280_temperature;BME280_humidity;BME280_pressure;Samples;Min_cycle;Max_cycle;Signal;HPM_P1;HPM_P2
2022/07/28 00:01:05;;;;;;;5.97;2.00;;;;;;;14.66;67.91;101977.03;5008757;28;20033;-89
2022/07/28 00:03:33;;;;;;;8.48;2.40;;;;;;;14.65;69.01;101970.09;5012857;28;20029;-89
2022/07/28 00:05:58;;;;;;;4.15;1.80;;;;;;;14.65;68.55;101977.94;5016862;28;20033;-88
2022/07/28 00:08:24;;;;;;;4.57;1.90;;;;;;;14.62;67.74;101976.22;5009357;28;20379;-88
2022/07/28 00:10:49;;;;;;;5.75;2.05;;;;;;;14.63;68.79;101981.41;5007474;28;20730;-88
2022/07/28 00:13:15;;;;;;;4.82;1.92;;;;;;;14.60;68.81;101972.81;5004598;28;20045;-88
2022/07/28 00:15:40;;;;;;;6.05;2.03;;;;;;;14.53;67.88;101964.25;5008704;28;20372;-89
2022/07/28 00:18:06;;;;;;;4.15;2.00;;;;;;;14.57;68.77;101965.91;5011858;28;20026;-88
2022/07/28 00:20:31;;;;;;;3.95;2.10;;;;;;;14.53;68.28;101964.25;5008703;28;20505;-89
2022/07/28 00:22:57;;;;;;;4.38;2.15;;;;;;;14.54;68.81;101965.97;5009823;28;20030;-89
2022/07/28 00:25:22;;;;;;;6.22;2.40;;;;;;;14.52;67.63;101966.91;5010552;28;20046;-88
2022/07/28 00:27:47;;;;;;;6.30;1.92;;;;;;;14.49;67.80;101974.78;5010113;28;20518;-88
2022/07/28 00:30:16;;;;;;;4.00;1.83;;;;;;;14.45;68.34;101974.00;5008249;28;20450;-89
2022/07/28 00:32:41;;;;;;;7.82;2.33;;;;;;;14.39;68.33;101968.06;5010826;28;20548;-88
2022/07/28 00:35:07;;;;;;;7.00;2.40;;;;;;;14.36;67.99;101965.47;5012508;28;20022;-88
2022/07/28 00:37:32;;;;;;;2.72;1.80;;;;;;;14.34;69.63;101955.06;5012357;28;20037;-88
2022/07/28 00:39:58;;;;;;;6.07;1.90;;;;;;;14.31;68.83;101962.13;5008444;28;20104;-88
2022/07/28 00:42:23;;;;;;;4.10;1.95;;;;;;;14.25;69.50;101960.50;5008613;28;20036;-89
2022/07/28 00:44:48;;;;;;;5.00;2.25;;;;;;;14.21;70.00;101951.88;5008467;28;20026;-88
2022/07/28 00:47:14;;;;;;;6.30;2.13;;;;;;;14.15;69.33;101944.16;5007998;28;20033;-89
2022/07/28 00:49:40;;;;;;;6.10;2.50;;;;;;;14.16;69.20;101960.69;5007712;28;20022;-89
2022/07/28 00:52:08;;;;;;;6.32;2.20;;;;;;;14.13;69.20;101953.78;5010082;28;20026;-88
2022/07/28 00:54:36;;;;;;;5.10;1.83;;;;;;;14.11;70.04;101954.72;5008362;28;20052;-89
2022/07/28 00:57:07;;;;;;;4.63;2.00;;;;;;;14.05;70.73;101954.84;5010025;28;20438;-88
2022/07/28 00:59:35;;;;;;;4.15;1.80;;;;;;;14.03;68.92;101967.91;5019252;28;20025;-88
2022/07/28 01:02:01;;;;;;;4.22;2.08;;;;;;;14.00;68.82;101972.28;5008046;28;20025;-88
2022/07/28 01:04:27;;;;;;;7.72;2.13;;;;;;;13.97;69.84;101956.72;5009863;28;20034;-89
2022/07/28 01:07:17;;;;;;;4.22;2.05;;;;;;;13.94;70.27;101941.13;5006259;28;20088;-88
2022/07/28 01:09:56;;;;;;;4.32;2.08;;;;;;;13.90;69.14;101939.50;5007070;28;20099;-89
2022/07/28 01:12:44;;;;;;;6.13;2.00;;;;;;;13.87;70.42;101945.63;5009704;28;20451;-89
2022/07/28 01:15:26;;;;;;;4.40;1.85;;;;;;;13.80;69.96;101944.88;5003471;28;20437;-88
2022/07/28 01:18:13;;;;;;;4.95;1.92;;;;;;;13.77;68.81;101939.75;5006280;28;20022;-88
2022/07/28 01:20:51;;;;;;;5.22;2.03;;;;;;;13.73;70.17;101939.81;5008765;28;20483;-88
2022/07/28 01:23:17;;;;;;;4.30;2.00;;;;;;;13.71;70.01;101945.06;5006815;28;20022;-88
2022/07/28 01:26:09;;;;;;;5.10;1.90;;;;;;;13.68;70.89;101941.66;5007600;28;20053;-88
2022/07/28 01:28:59;;;;;;;4.30;1.90;;;;;;;13.66;69.98;101938.22;5008109;28;20296;-88
2022/07/28 01:31:29;;;;;;;4.70;1.80;;;;;;;13.60;70.40;101941.78;5007407;28;20034;-88
2022/07/28 01:33:59;;;;;;;4.55;1.95;;;;;;;13.56;70.28;101936.69;5023106;28;20486;-88
2022/07/28 01:36:30;;;;;;;8.48;2.20;;;;;;;13.51;70.64;101936.75;5004333;28;20510;-88
2022/07/28 01:38:56;;;;;;;4.50;2.10;;;;;;;13.47;71.65;101929.03;5007354;28;20030;-88
2022/07/28 01:41:26;;;;;;;6.13;1.90;;;;;;;13.43;70.76;101925.63;5010501;28;20018;-88
2022/07/28 01:44:00;;;;;;;5.32;2.20;;;;;;;13.40;70.27;101925.66;5007516;28;20022;-88
2022/07/28 01:46:26;;;;;;;4.78;1.95;;;;;;;13.37;71.61;101926.56;5006779;28;20018;-88
2022/07/28 01:48:53;;;;;;;6.45;2.10;;;;;;;13.28;70.16;101929.34;5007084;28;20527;-88
2022/07/28 01:51:22;;;;;;;6.28;2.25;;;;;;;13.24;70.14;101916.41;5003050;28;20077;-88
2022/07/28 01:53:50;;;;;;;6.35;2.03;;;;;;;13.27;71.49;101932.84;5007081;28;20040;-88
2022/07/28 01:56:19;;;;;;;7.40;2.22;;;;;;;13.26;71.64;101930.25;5006782;28;20013;-88
2022/07/28 01:58:50;;;;;;;7.28;2.10;;;;;;;13.25;71.55;101928.53;5007509;28;20122;-88
2022/07/28 02:01:18;;;;;;;4.32;1.92;;;;;;;13.26;72.58;101935.47;5007266;28;20152;-88
2022/07/28 02:03:45;;;;;;;4.10;2.00;;;;;;;13.20;72.87;101928.63;5003076;28;20499;-88
2022/07/28 02:06:12;;;;;;;5.13;2.20;;;;;;;13.12;72.64;101935.66;5006702;28;20040;-88
2022/07/28 02:08:39;;;;;;;6.47;2.70;;;;;;;13.09;71.37;101925.31;5012647;28;20026;-88
2022/07/28 02:13:49;;;;;;;6.90;2.13;;;;;;;13.03;72.05;101921.06;5008085;28;20514;-88
2022/07/28 02:16:19;;;;;;;4.35;2.30;;;;;;;13.02;73.07;101914.16;5009033;28;20036;-88
2022/07/28 02:18:47;;;;;;;6.05;2.33;;;;;;;13.02;72.76;101913.28;5013004;28;20090;-88
2022/07/28 02:21:14;;;;;;;4.75;2.45;;;;;;;13.02;72.92;101902.88;5012355;28;20510;-88
2022/07/28 02:23:42;;;;;;;5.35;2.00;;;;;;;13.01;73.28;101903.75;5012744;28;20045;-88
2022/07/28 02:26:11;;;;;;;9.52;2.20;;;;;;;13.03;72.81;101909.81;5011366;28;20045;-88
2022/07/28 02:28:42;;;;;;;5.30;2.30;;;;;;;13.01;72.76;101907.22;5012253;28;20073;-88
2022/07/28 02:31:15;;;;;;;4.38;2.38;;;;;;;12.99;72.65;101902.91;5004701;28;20135;-88
2022/07/28 02:33:42;;;;;;;7.40;2.60;;;;;;;12.95;72.18;101903.88;5011016;28;20026;-89
2022/07/28 02:36:19;;;;;;;10.10;2.83;;;;;;;12.96;72.91;101906.44;5015722;28;20064;-88
2022/07/28 02:38:45;;;;;;;4.15;2.13;;;;;;;12.94;73.46;101909.94;5012198;28;20025;-88
2022/07/28 02:41:25;;;;;;;4.50;2.30;;;;;;;12.97;72.51;101915.09;5014033;28;20030;-88
2022/07/28 02:43:54;;;;;;;7.13;2.40;;;;;;;12.95;73.69;101911.69;5007070;28;20049;-88
2022/07/28 02:46:24;;;;;;;7.97;2.70;;;;;;;12.92;72.10;101903.91;5005508;28;20022;-88
2022/07/28 02:48:55;;;;;;;5.18;2.83;;;;;;;12.88;71.59;101903.13;5010727;28;20443;-88
2022/07/28 02:51:23;;;;;;;9.35;2.95;;;;;;;12.89;72.71;101911.78;5006885;28;20640;-88
2022/07/28 02:53:49;;;;;;;6.43;2.40;;;;;;;12.89;73.09;101906.56;5013479;28;20029;-89
2022/07/28 02:56:16;;;;;;;5.75;2.40;;;;;;;12.87;73.61;101904.00;5010778;28;20487;-89
2022/07/28 02:58:44;;;;;;;5.95;2.42;;;;;;;12.86;73.20;101904.88;5009452;28;20029;-88
2022/07/28 03:01:10;;;;;;;6.15;2.65;;;;;;;12.85;73.57;101903.16;5008158;28;20049;-89
2022/07/28 03:03:36;;;;;;;5.88;2.40;;;;;;;12.85;72.22;101903.16;5011065;28;20037;-88
2022/07/28 03:06:04;;;;;;;3.58;2.45;;;;;;;12.87;73.78;101908.34;5009648;28;20032;-89
2022/07/28 03:08:30;;;;;;;7.10;2.75;;;;;;;12.85;72.87;101907.50;5010371;28;20029;-88
2022/07/28 03:11:08;;;;;;;8.15;2.70;;;;;;;12.83;72.74;101904.06;5009421;28;20026;-88
2022/07/28 03:13:34;;;;;;;7.05;2.45;;;;;;;12.79;73.47;101903.25;5008329;28;20037;-88
2022/07/28 03:15:59;;;;;;;6.50;2.35;;;;;;;12.78;72.91;101911.06;5009534;28;20112;-89
2022/07/28 03:18:27;;;;;;;3.72;2.40;;;;;;;12.74;74.38;101902.47;5008523;28;20069;-89
2022/07/28 03:20:53;;;;;;;5.03;2.38;;;;;;;12.74;74.81;101901.59;5011364;28;20117;-89
2022/07/28 03:23:23;;;;;;;4.80;2.25;;;;;;;12.73;73.48;101905.94;5010473;28;20109;-89
2022/07/28 03:25:52;;;;;;;5.28;2.30;;;;;;;12.76;74.69;101910.25;5009474;28;20069;-89
2022/07/28 03:28:20;;;;;;;5.70;2.45;;;;;;;12.74;73.50;101909.41;4997728;28;20030;-89
2022/07/28 03:30:59;;;;;;;7.10;2.40;;;;;;;12.70;72.63;101911.19;5008950;28;20040;-88
2022/07/28 03:33:25;;;;;;;4.57;2.10;;;;;;;12.70;73.47;101920.72;4998812;28;20030;-88
2022/07/28 03:35:52;;;;;;;5.50;2.50;;;;;;;12.65;72.93;101920.81;5014758;28;20087;-88
2022/07/28 03:38:21;;;;;;;7.32;2.80;;;;;;;12.63;73.01;101920.81;5008478;28;20026;-89
2022/07/28 03:40:49;;;;;;;9.93;2.70;;;;;;;12.65;74.52;101915.59;5008464;28;20029;-89
2022/07/28 03:43:22;;;;;;;5.60;2.90;;;;;;;12.62;73.79;101920.88;5011012;28;20026;-88
2022/07/28 03:45:49;;;;;;;5.80;2.40;;;;;;;12.59;72.93;101920.91;5016788;28;20058;-88
2022/07/28 03:48:17;;;;;;;3.58;2.30;;;;;;;12.57;73.15;101917.47;5011350;28;20056;-89
2022/07/28 03:50:46;;;;;;;7.35;2.38;;;;;;;12.54;73.39;101920.97;5011407;28;20030;-88
2022/07/28 03:53:23;;;;;;;5.65;2.30;;;;;;;12.50;73.46;101916.69;5010709;28;20113;-89
2022/07/28 03:55:49;;;;;;;7.30;2.30;;;;;;;12.49;75.07;101920.16;5009422;28;20084;-89
2022/07/28 03:58:19;;;;;;;5.50;2.47;;;;;;;12.48;74.84;101925.41;5019061;28;20104;-88
2022/07/28 04:00:45;;;;;;;12.68;2.55;;;;;;;12.45;73.61;101921.09;5009725;28;20040;-88
2022/07/28 04:03:10;;;;;;;5.45;2.30;;;;;;;12.43;75.23;101922.84;5009916;28;20038;-88
2022/07/28 04:05:35;;;;;;;10.02;2.90;;;;;;;12.39;74.92;101920.34;5008286;28;20053;-88
2022/07/28 04:08:01;;;;;;;20.23;2.72;;;;;;;12.38;74.13;101916.00;5008204;28;20109;-88
2022/07/28 04:10:26;;;;;;;23.95;3.58;;;;;;;12.34;75.55;101910.00;5010588;28;20109;-89
2022/07/28 04:12:55;;;;;;;8.50;2.80;;;;;;;12.33;75.26;101918.69;5008552;28;20435;-88
2022/07/28 04:15:23;;;;;;;5.72;2.45;;;;;;;12.33;75.90;101923.88;5006494;28;20057;-88
2022/07/28 04:17:50;;;;;;;7.78;2.50;;;;;;;12.33;74.92;101917.81;5006794;28;20033;-87
2022/07/28 04:20:19;;;;;;;12.70;2.90;;;;;;;12.31;75.71;101916.97;5009555;28;20080;-88
2022/07/28 04:22:46;;;;;;;13.02;2.90;;;;;;;12.30;75.13;101910.03;4999293;28;20117;-88
2022/07/28 04:25:12;;;;;;;6.68;2.60;;;;;;;12.32;75.29;101913.50;5009009;28;20081;-88
2022/07/28 04:27:38;;;;;;;8.25;2.50;;;;;;;12.28;74.83;101910.91;5008053;28;20021;-88
2022/07/28 04:30:06;;;;;;;5.45;2.50;;;;;;;12.28;74.86;101899.69;5007770;28;20014;-88
2022/07/28 04:32:32;;;;;;;8.93;2.70;;;;;;;12.28;76.29;101908.31;5009464;28;20040;-88
2022/07/28 04:34:57;;;;;;;8.20;2.60;;;;;;;12.30;74.89;101903.09;5008040;28;20395;-88
2022/07/28 04:37:22;;;;;;;8.00;2.67;;;;;;;12.31;74.61;101906.56;5004792;28;20109;-88
2022/07/28 04:39:49;;;;;;;6.05;2.53;;;;;;;12.32;74.87;101903.94;5010251;28;20030;-88
2022/07/28 04:42:22;;;;;;;6.90;2.42;;;;;;;12.35;76.59;101900.47;5011545;28;20422;-88
2022/07/28 04:44:48;;;;;;;8.95;3.00;;;;;;;12.36;76.20;101900.41;5006604;28;20032;-88
2022/07/28 04:47:13;;;;;;;7.28;3.10;;;;;;;12.41;76.01;101906.44;5013370;28;20394;-88
2022/07/28 04:49:39;;;;;;;9.20;2.58;;;;;;;12.43;75.26;101904.66;5009879;28;20029;-88
2022/07/28 04:52:07;;;;;;;7.60;2.35;;;;;;;12.45;75.09;101902.03;5009028;28;20025;-88
2022/07/28 04:54:32;;;;;;;8.23;2.90;;;;;;;12.48;74.85;101902.88;5005758;28;20037;-88
2022/07/28 04:56:58;;;;;;;9.32;2.70;;;;;;;12.50;75.69;101900.22;5004483;28;20026;-88
2022/07/28 04:59:23;;;;;;;7.07;2.63;;;;;;;12.51;74.88;101908.00;5012966;28;20030;-88
2022/07/28 05:01:48;;;;;;;9.57;2.78;;;;;;;12.56;75.39;101907.94;5009449;28;20117;-87
2022/07/28 05:04:14;;;;;;;7.47;2.70;;;;;;;12.59;76.97;101900.09;5016160;28;20052;-88
2022/07/28 05:06:40;;;;;;;6.55;2.65;;;;;;;12.61;75.22;101900.94;5007644;28;20303;-88
2022/07/28 05:09:05;;;;;;;8.43;2.80;;;;;;;12.63;76.35;101902.63;5009958;28;20395;-88
2022/07/28 05:11:30;;;;;;;7.43;2.60;;;;;;;12.65;76.75;101906.06;5009443;28;20022;-88
2022/07/28 05:13:56;;;;;;;6.97;2.50;;;;;;;12.65;75.40;101911.25;5009161;28;20030;-88
2022/07/28 05:16:21;;;;;;;6.38;2.58;;;;;;;12.71;76.30;101915.50;5006044;28;20052;-88
2022/07/28 05:18:47;;;;;;;8.55;2.55;;;;;;;12.71;76.73;101912.03;5005576;28;20084;-88
2022/07/28 05:21:12;;;;;;;6.70;2.58;;;;;;;12.70;76.64;101908.59;5008691;28;20030;-89
2022/07/28 05:23:38;;;;;;;7.43;2.55;;;;;;;12.73;75.40;101910.28;5005907;28;20091;-89
2022/07/28 05:26:06;;;;;;;8.48;2.83;;;;;;;12.76;77.12;101907.66;5007378;28;20135;-88
2022/07/28 05:28:34;;;;;;;6.43;2.83;;;;;;;12.78;76.91;101905.88;5007595;28;20034;-88
2022/07/28 05:31:00;;;;;;;8.27;3.08;;;;;;;12.78;75.74;101898.91;5007030;28;20029;-89
2022/07/28 05:33:26;;;;;;;7.95;2.88;;;;;;;12.81;75.12;101900.63;5005631;28;20030;-88
2022/07/28 05:35:56;;;;;;;10.60;3.05;;;;;;;12.86;74.93;101906.59;5005366;28;20033;-87
2022/07/28 05:38:22;;;;;;;8.48;3.00;;;;;;;12.87;76.28;101906.59;5005493;28;20096;-88
2022/07/28 05:40:48;;;;;;;9.63;3.20;;;;;;;12.89;75.69;101904.84;5010422;28;20101;-88
2022/07/28 05:43:16;;;;;;;7.55;3.03;;;;;;;12.98;76.63;101912.47;5008585;28;20112;-88
2022/07/28 05:45:45;;;;;;;11.23;3.50;;;;;;;13.04;77.21;101908.91;5009247;28;20025;-88
2022/07/28 05:48:11;;;;;;;7.28;2.67;;;;;;;13.09;74.31;101917.50;5001366;28;20407;-88
2022/07/28 05:50:36;;;;;;;12.68;3.08;;;;;;;13.12;74.27;101908.78;4998367;28;20474;-88
2022/07/28 05:53:02;;;;;;;5.53;2.58;;;;;;;13.17;74.04;101914.81;5001246;28;20200;-88
2022/07/28 05:55:27;;;;;;;9.82;2.80;;;;;;;13.26;73.67;101907.69;5008394;28;20030;-87
2022/07/28 05:57:53;;;;;;;7.57;2.60;;;;;;;13.27;74.55;101912.00;5002357;28;20049;-88
2022/07/28 06:00:20;;;;;;;7.15;2.97;;;;;;;13.34;74.00;101902.34;4997662;28;20029;-88
2022/07/28 06:02:49;;;;;;;5.85;2.25;;;;;;;13.45;72.98;101909.06;5006921;28;20045;-88
2022/07/28 06:05:17;;;;;;;6.55;2.70;;;;;;;13.56;73.64;101913.22;5011299;28;20044;-88
2022/07/28 06:07:43;;;;;;;8.30;2.75;;;;;;;13.63;72.59;101912.22;5006554;28;20030;-89
2022/07/28 06:10:13;;;;;;;11.05;2.67;;;;;;;13.73;71.82;101916.34;5008678;28;20034;-88
2022/07/28 06:12:40;;;;;;;10.23;2.40;;;;;;;13.85;71.72;101911.75;5008766;28;20148;-88
2022/07/28 06:15:07;;;;;;;4.93;2.53;;;;;;;13.92;73.37;101909.06;5003272;28;20033;-88
2022/07/28 06:17:32;;;;;;;10.73;2.83;;;;;;;14.01;73.58;101903.63;5005377;28;20033;-88
2022/07/28 06:19:57;;;;;;;6.00;2.63;;;;;;;14.14;70.62;101911.16;5000429;28;20030;-88
2022/07/28 06:22:23;;;;;;;7.45;2.88;;;;;;;14.28;72.41;101904.78;5003549;28;20057;-88
2022/07/28 06:24:51;;;;;;;7.07;2.70;;;;;;;14.43;71.73;101907.09;5006008;28;20030;-88
2022/07/28 06:27:19;;;;;;;6.15;2.85;;;;;;;14.57;72.99;101907.63;5006895;28;20028;-88
2022/07/28 06:29:44;;;;;;;10.70;2.42;;;;;;;14.66;68.44;101904.81;5007239;28;20038;-88
2022/07/28 06:32:12;;;;;;;8.15;2.38;;;;;;;14.73;69.44;101918.59;5007459;28;20030;-88
2022/07/28 06:34:37;;;;;;;10.05;2.38;;;;;;;14.80;69.72;101901.88;5003504;28;20026;-88
2022/07/28 06:37:05;;;;;;;9.20;2.22;;;;;;;14.91;71.35;101913.78;5006499;28;20045;-88
2022/07/28 06:39:30;;;;;;;14.60;2.78;;;;;;;15.02;68.62;101903.06;5008696;28;20088;-88
2022/07/28 06:41:56;;;;;;;4.90;2.40;;;;;;;15.08;68.39;101902.06;5008398;28;20033;-88
2022/07/28 06:44:21;;;;;;;6.17;2.40;;;;;;;15.11;66.86;101907.19;5009524;28;20026;-89
2022/07/28 06:46:48;;;;;;;6.32;2.25;;;;;;;15.17;67.01;101907.03;5007602;28;20289;-88
2022/07/28 06:49:14;;;;;;;5.13;2.40;;;;;;;15.25;70.19;101915.53;5004668;28;20037;-88
2022/07/28 06:51:39;;;;;;;9.20;2.55;;;;;;;15.32;70.48;101899.66;5007795;28;20033;-88
2022/07/28 06:54:05;;;;;;;8.65;2.42;;;;;;;15.43;69.88;101907.19;5005521;28;20029;-88
2022/07/28 06:56:30;;;;;;;7.70;2.30;;;;;;;15.48;69.91;101902.75;5006821;28;20113;-88
2022/07/28 06:58:55;;;;;;;5.45;2.03;;;;;;;15.54;66.78;101904.34;5008580;28;20026;-88
2022/07/28 07:01:21;;;;;;;6.50;2.10;;;;;;;15.56;69.92;101898.16;5006529;28;20022;-89
2022/07/28 07:03:49;;;;;;;7.57;2.42;;;;;;;15.69;66.50;101902.16;5008339;28;20034;-87
2022/07/28 07:06:14;;;;;;;5.70;2.08;;;;;;;15.79;64.69;101902.75;5000177;28;20109;-88
2022/07/28 07:08:39;;;;;;;6.82;2.20;;;;;;;15.82;67.72;101896.59;5007334;28;20141;-87
2022/07/28 07:11:08;;;;;;;5.53;2.05;;;;;;;15.93;68.23;101908.47;5011229;28;20379;-88
2022/07/28 07:13:33;;;;;;;4.97;2.17;;;;;;;16.03;66.64;101898.59;5011063;28;20034;-88
2022/07/28 07:15:58;;;;;;;7.85;2.00;;;;;;;16.11;64.88;101902.69;5010244;28;20034;-87
2022/07/28 07:18:24;;;;;;;9.23;1.80;;;;;;;16.13;63.01;101898.28;5012260;28;20113;-86
2022/07/28 07:20:49;;;;;;;10.20;2.10;;;;;;;16.18;63.70;101905.97;5019289;28;20026;-88
2022/07/28 07:23:17;;;;;;;8.32;1.92;;;;;;;16.32;66.78;101895.94;5008280;28;20099;-88
2022/07/28 07:25:46;;;;;;;15.88;2.50;;;;;;;16.47;64.37;101892.00;5010910;28;20049;-88
2022/07/28 07:28:11;;;;;;;6.35;2.00;;;;;;;16.67;65.24;101900.13;5009532;28;20026;-87
2022/07/28 07:30:36;;;;;;;5.28;1.80;;;;;;;16.74;61.67;101903.38;5009887;28;20440;-87
2022/07/28 07:33:02;;;;;;;10.18;2.00;;;;;;;16.80;62.94;101908.44;5010703;28;20034;-87
2022/07/28 07:35:27;;;;;;;10.13;2.50;;;;;;;16.81;61.76;101904.91;5005237;28;20093;-87
2022/07/28 07:37:54;;;;;;;6.82;1.80;;;;;;;16.93;60.64;101909.72;5025193;28;20096;-87
2022/07/28 07:40:20;;;;;;;9.18;1.75;;;;;;;16.99;60.84;101896.44;5007856;28;20021;-90
2022/07/28 07:42:45;;;;;;;6.50;1.70;;;;;;;17.07;61.75;101907.50;5008176;28;21108;-90
2022/07/28 07:45:11;;;;;;;4.50;1.80;;;;;;;17.02;59.70;101908.59;5006517;28;20033;-90
2022/07/28 07:47:36;;;;;;;4.32;1.60;;;;;;;16.89;60.29;101906.38;5006727;28;20018;-90
2022/07/28 07:50:02;;;;;;;7.07;2.05;;;;;;;16.93;61.12;101899.25;5007737;28;20041;-89
2022/07/28 07:52:27;;;;;;;8.38;2.08;;;;;;;17.37;60.95;101893.38;5010881;28;20033;-89
2022/07/28 07:54:52;;;;;;;5.03;1.65;;;;;;;18.29;57.62;101884.72;5006875;28;20057;-89
2022/07/28 07:57:18;;;;;;;5.93;1.67;;;;;;;18.98;54.92;101886.31;5010750;28;20101;-90
2022/07/28 07:59:43;;;;;;;2.63;1.43;;;;;;;19.44;54.03;101890.47;5006891;28;20218;-90
2022/07/28 08:02:11;;;;;;;4.75;1.50;;;;;;;19.98;50.43;101888.94;5004865;28;20785;-90
2022/07/28 08:04:36;;;;;;;8.45;1.80;;;;;;;20.38;49.53;101882.69;5005329;28;20029;-91
2022/07/28 08:07:05;;;;;;;4.13;1.40;;;;;;;21.00;49.35;101886.66;5008743;28;20032;-91
2022/07/28 08:09:31;;;;;;;7.07;1.70;;;;;;;21.45;49.79;101879.03;5008369;28;20099;-89
2022/07/28 08:11:56;;;;;;;6.00;1.63;;;;;;;21.95;47.34;101883.41;5010107;28;20368;-88
2022/07/28 08:14:21;;;;;;;5.20;1.63;;;;;;;22.02;46.54;101869.81;5007252;28;20133;-87
2022/07/28 08:16:47;;;;;;;4.70;1.73;;;;;;;22.16;48.20;101871.69;5007996;28;20113;-88
2022/07/28 08:19:12;;;;;;;6.50;1.50;;;;;;;22.31;44.47;101875.25;5001231;28;20041;-88
2022/07/28 08:21:38;;;;;;;6.00;1.70;;;;;;;22.03;47.63;101871.53;5007884;28;20026;-88
2022/07/28 08:24:06;;;;;;;5.80;1.40;;;;;;;22.26;49.52;101878.16;5009904;28;20095;-88
2022/07/28 08:26:32;;;;;;;6.88;1.70;;;;;;;22.61;45.20;101881.44;5007969;28;20079;-88
2022/07/28 08:28:57;;;;;;;9.85;1.80;;;;;;;23.00;44.06;101869.50;5007847;28;20029;-87
2022/07/28 08:31:22;;;;;;;6.63;1.77;;;;;;;23.33;44.15;101882.53;5005034;28;20782;-88
2022/07/28 08:33:48;;;;;;;6.65;1.60;;;;;;;23.44;40.86;101867.69;5000105;28;20105;-87
2022/07/28 08:36:14;;;;;;;8.75;1.83;;;;;;;23.43;43.09;101871.28;5009673;28;20030;-88
2022/07/28 08:38:40;;;;;;;8.40;1.70;;;;;;;23.54;45.26;101865.38;5009339;28;20025;-90
2022/07/28 08:41:12;;;;;;;7.15;1.58;;;;;;;23.57;40.92;101860.72;5008777;28;20364;-91
2022/07/28 08:43:46;;;;;;;7.32;1.67;;;;;;;23.49;44.70;101864.78;5006897;28;20033;-90
2022/07/28 08:46:12;;;;;;;5.28;1.38;;;;;;;23.43;44.89;101878.34;4999773;28;20117;-90
2022/07/28 08:48:38;;;;;;;5.57;1.73;;;;;;;22.80;41.51;101868.03;5004407;28;20163;-90
2022/07/28 08:51:09;;;;;;;6.30;1.80;;;;;;;22.36;46.15;101866.13;5009319;28;20471;-91
2022/07/28 08:53:37;;;;;;;5.53;1.60;;;;;;;21.97;45.50;101874.47;5009532;28;20018;-90
2022/07/28 08:56:05;;;;;;;7.32;2.00;;;;;;;21.83;44.81;101868.22;5007755;28;20609;-90
2022/07/28 08:58:32;;;;;;;5.05;1.60;;;;;;;21.67;43.58;101868.19;5010414;28;20056;-91
2022/07/28 09:00:58;;;;;;;5.75;1.42;;;;;;;21.61;44.12;101868.53;5009190;28;20032;-89
2022/07/28 09:03:28;;;;;;;6.95;1.70;;;;;;;21.45;44.43;101868.47;5006804;28;20021;-89
2022/07/28 09:05:55;;;;;;;5.82;1.40;;;;;;;21.38;45.23;101876.78;5004010;28;20022;-90
2022/07/28 09:08:21;;;;;;;7.45;1.67;;;;;;;21.24;44.15;101864.31;5008284;28;20223;-87
2022/07/28 09:10:57;;;;;;;3.72;1.45;;;;;;;21.22;49.97;101856.47;5007790;28;20061;-89
2022/07/28 09:13:23;;;;;;;6.38;1.60;;;;;;;21.51;49.19;101848.81;5007706;28;20040;-89
2022/07/28 09:15:51;;;;;;;6.05;1.50;;;;;;;21.95;48.77;101857.84;5007025;28;20026;-88
2022/07/28 09:18:17;;;;;;;4.28;1.40;;;;;;;22.00;44.73;101854.97;5005193;28;20032;-88
2022/07/28 09:20:44;;;;;;;4.45;1.77;;;;;;;21.82;43.40;101862.09;5008526;28;20402;-89
2022/07/28 09:23:10;;;;;;;5.03;1.70;;;;;;;21.71;47.18;101864.44;5008874;28;20018;-89
2022/07/28 09:25:37;;;;;;;3.55;1.58;;;;;;;21.83;46.56;101871.72;5008560;28;20050;-88
2022/07/28 09:28:11;;;;;;;3.47;1.55;;;;;;;21.77;44.46;101855.38;5009685;28;20121;-88
2022/07/28 09:30:40;;;;;;;5.57;1.70;;;;;;;21.54;44.42;101848.69;5008300;28;20018;-88
2022/07/28 09:33:20;;;;;;;5.80;1.60;;;;;;;21.46;48.35;101846.44;5009179;28;20030;-88
2022/07/28 09:35:48;;;;;;;5.60;1.70;;;;;;;21.52;47.99;101842.63;5011867;28;20044;-88
2022/07/28 09:38:19;;;;;;;14.93;2.58;;;;;;;21.74;47.83;101822.06;5006057;28;20499;-88
2022/07/28 09:41:05;;;;;;;4.38;2.00;;;;;;;21.93;45.52;101835.94;5008171;28;20539;-88
2022/07/28 09:43:42;;;;;;;3.90;2.00;;;;;;;21.86;45.39;101831.09;5007858;28;20033;-88
2022/07/28 09:46:13;;;;;;;5.40;2.25;;;;;;;21.79;45.13;101824.44;5009249;28;20475;-87
2022/07/28 09:48:48;;;;;;;4.50;1.63;;;;;;;21.74;47.08;101829.13;4999672;28;20033;-88
2022/07/28 09:51:15;;;;;;;5.30;1.63;;;;;;;21.83;46.24;101821.56;5008452;28;20041;-88
2022/07/28 09:53:41;;;;;;;5.38;1.60;;;;;;;21.87;45.38;101817.81;4998968;28;20427;-88
2022/07/28 09:56:10;;;;;;;5.57;1.60;;;;;;;21.84;44.78;101811.84;5007258;28;20422;-88
2022/07/28 09:58:37;;;;;;;3.03;1.50;;;;;;;21.81;44.72;101815.50;5003429;28;20510;-87
2022/07/28 10:01:06;;;;;;;5.40;1.65;;;;;;;21.86;44.34;101810.81;5004825;28;20364;-88
2022/07/28 10:03:32;;;;;;;5.18;1.55;;;;;;;21.91;45.29;101803.50;5006967;28;20526;-87
2022/07/28 10:05:58;;;;;;;5.20;1.60;;;;;;;21.99;44.18;101801.31;5005646;28;20018;-87
2022/07/28 10:08:46;;;;;;;4.90;1.52;;;;;;;22.13;47.59;101807.59;5008211;28;20109;-88
2022/07/28 10:11:14;;;;;;;5.85;1.80;;;;;;;22.23;44.80;101800.88;5009848;28;20110;-88
2022/07/28 10:13:53;;;;;;;4.05;1.60;;;;;;;22.03;43.29;101815.22;5006966;28;20391;-88
2022/07/28 10:16:20;;;;;;;3.58;1.45;;;;;;;21.92;44.12;101817.53;5006923;28;20446;-87
2022/07/28 10:18:46;;;;;;;6.07;1.70;;;;;;;21.77;45.18;101808.69;5005484;28;20050;-90
2022/07/28 10:21:14;;;;;;;5.22;1.60;;;;;;;21.82;45.13;101808.44;5002627;28;20025;-89
2022/07/28 10:23:46;;;;;;;4.35;1.88;;;;;;;21.84;45.11;101801.28;5009939;28;20502;-91
2022/07/28 10:26:12;;;;;;;4.68;1.55;;;;;;;21.81;43.82;101802.31;5005540;28;20073;-89
2022/07/28 10:28:44;;;;;;;2.72;1.40;;;;;;;21.79;44.82;101792.75;5010404;28;20041;-90
2022/07/28 10:31:13;;;;;;;6.40;1.75;;;;;;;21.81;44.68;101797.03;5009458;28;20024;-88
2022/07/28 10:33:45;;;;;;;9.10;1.70;;;;;;;21.95;47.18;101801.53;5011557;28;20161;-90
2022/07/28 10:36:10;;;;;;;4.65;1.60;;;;;;;22.01;43.83;101810.00;5016371;28;20053;-90
2022/07/28 10:38:36;;;;;;;5.53;1.85;;;;;;;22.02;45.24;101800.31;5010589;28;20403;-90
2022/07/28 10:41:05;;;;;;;5.35;1.77;;;;;;;22.04;45.65;101796.63;5014050;28;20033;-90
2022/07/28 10:43:39;;;;;;;5.85;2.00;;;;;;;22.09;43.38;101793.75;5010721;28;20049;-90
2022/07/28 10:46:04;;;;;;;4.65;1.75;;;;;;;22.01;43.88;101786.25;5010765;28;20513;-90
2022/07/28 10:48:30;;;;;;;5.35;1.85;;;;;;;22.00;42.55;101783.69;5011243;28;20022;-87
2022/07/28 10:50:58;;;;;;;5.57;2.22;;;;;;;21.97;45.49;101787.34;5013118;28;20030;-87
2022/07/28 10:53:38;;;;;;;3.05;1.70;;;;;;;22.01;43.07;101788.88;5019820;28;20032;-87
2022/07/28 10:56:14;;;;;;;3.75;2.00;;;;;;;22.07;43.47;101790.31;5014754;28;20046;-87
2022/07/28 10:59:27;;;;;;;2.67;1.58;;;;;;;22.11;43.82;101788.38;5006913;28;20029;-88
2022/07/28 11:01:52;;;;;;;6.07;1.70;;;;;;;22.03;42.06;101789.66;4970712;28;20496;-85
2022/07/28 11:04:46;;;;;;;4.72;1.80;;;;;;;22.03;45.04;101789.66;4983006;28;20031;-88
2022/07/28 11:07:14;;;;;;;4.63;1.70;;;;;;;22.03;44.81;101784.38;4996284;28;20127;-87
2022/07/28 11:09:40;;;;;;;15.68;2.55;;;;;;;22.10;42.44;101784.88;5003048;28;20279;-87
2022/07/28 11:12:13;;;;;;;9.98;1.92;;;;;;;22.13;43.17;101781.19;5010401;28;20026;-88
2022/07/28 11:14:39;;;;;;;6.20;1.92;;;;;;;22.22;44.51;101775.41;5003341;28;20510;-88
2022/07/28 11:17:04;;;;;;;4.78;1.70;;;;;;;22.24;42.73;101776.16;5010006;28;20578;-89
2022/07/28 11:19:45;;;;;;;6.38;1.70;;;;;;;22.25;44.80;101778.69;5011942;28;20026;-87
2022/07/28 11:22:20;;;;;;;4.32;1.55;;;;;;;22.33;43.30;101770.34;5011774;28;20526;-88
2022/07/28 11:25:03;;;;;;;5.72;1.67;;;;;;;22.30;45.12;101775.81;5017297;28;20037;-87
2022/07/28 11:27:53;;;;;;;15.23;2.25;;;;;;;22.31;43.67;101769.59;5010002;28;20071;-88
2022/07/28 11:30:18;;;;;;;7.25;1.83;;;;;;;22.34;46.97;101772.91;5004462;28;20053;-87
2022/07/28 11:32:52;;;;;;;7.88;1.58;;;;;;;22.37;44.93;101766.59;5009039;28;20065;-88